createdAt,value
2022-08-22T00:02:05.787Z,39.91
2022-08-22T00:02:41.977Z,38.90
2022-08-22T00:02:55.136Z,41.59
2022-08-22T00:03:10.557Z,41.30
2022-08-22T00:04:21.329Z,39.70
2022-08-22T00:06:38.733Z,39.67
2022-08-22T00:08:50.848Z,39.62
2022-08-22T00:11:02.599Z,39.90
2022-08-22T00:13:11.139Z,39.41
2022-08-22T00:15:43.444Z,39.45
2022-08-22T00:17:50.301Z,40.52
2022-08-22T00:20:02.121Z,40.48
2022-08-22T00:22:16.208Z,40.56
2022-08-22T00:24:30.162Z,39.76
2022-08-22T00:26:46.476Z,40.04
2022-08-22T00:28:53.377Z,39.19
2022-08-22T00:30:59.923Z,38.89
2022-08-22T00:33:06.308Z,38.61
2022-08-22T00:35:18.515Z,39.42
2022-08-22T00:37:28.689Z,39.22
2022-08-22T00:39:37.353Z,39.88
2022-08-22T00:41:59.513Z,39.97
2022-08-22T00:44:31.869Z,40.08
2022-08-22T00:47:03.593Z,40.00
2022-08-22T00:49:30.815Z,40.08
2022-08-22T00:51:59.428Z,40.19
2022-08-22T00:54:16.768Z,39.63
2022-08-22T00:56:41.717Z,40.09
2022-08-22T00:59:23.828Z,39.70
2022-08-22T01:01:32.556Z,40.03
2022-08-22T01:03:54.643Z,40.04
2022-08-22T01:06:14.936Z,40.16
2022-08-22T01:08:41.079Z,40.09
2022-08-22T01:11:01.936Z,40.00
2022-08-22T01:13:22.539Z,39.66
2022-08-22T01:15:29.228Z,40.06
2022-08-22T01:18:03.573Z,39.89
2022-08-22T01:20:32.929Z,40.19
2022-08-22T01:23:10.448Z,40.34
2022-08-22T01:25:49.785Z,40.32
2022-08-22T01:28:13.788Z,40.59
2022-08-22T01:30:47.817Z,40.68
2022-08-22T01:33:44.488Z,40.70
2022-08-22T01:35:59.611Z,41.16
2022-08-22T01:38:44.878Z,41.10
2022-08-22T01:41:17.112Z,41.00
2022-08-22T01:43:51.453Z,40.97
2022-08-22T01:46:24.274Z,40.86
2022-08-22T01:48:40.210Z,41.01
2022-08-22T01:50:46.900Z,41.25
2022-08-22T01:53:00.136Z,41.08
2022-08-22T01:55:08.779Z,41.28
2022-08-22T01:57:13.232Z,41.39
2022-08-22T01:59:25.416Z,41.58
2022-08-22T02:01:56.214Z,41.56
2022-08-22T02:04:05.636Z,41.60
2022-08-22T02:06:14.730Z,41.55
2022-08-22T02:08:26.583Z,41.82
2022-08-22T02:10:46.870Z,41.47
2022-08-22T02:13:03.487Z,41.41
2022-08-22T02:15:18.553Z,41.27
2022-08-22T02:17:27.336Z,41.52
2022-08-22T02:19:37.963Z,41.10
2022-08-22T02:21:47.120Z,41.52
2022-08-22T02:23:56.878Z,41.44
2022-08-22T02:26:08.387Z,42.10
2022-08-22T02:28:17.952Z,42.03
2022-08-22T02:30:23.369Z,42.24
2022-08-22T02:32:30.784Z,41.77
2022-08-22T02:34:40.127Z,41.92
2022-08-22T02:36:49.157Z,42.23
2022-08-22T02:39:04.530Z,42.19
2022-08-22T02:41:17.890Z,42.17
2022-08-22T02:43:27.628Z,42.34
2022-08-22T02:45:40.736Z,42.42
2022-08-22T02:47:56.800Z,42.67
2022-08-22T02:50:12.979Z,42.46
2022-08-22T02:52:22.669Z,42.70
2022-08-22T02:54:36.459Z,42.96
2022-08-22T02:56:45.480Z,42.89
2022-08-22T02:58:53.802Z,42.73
2022-08-22T03:01:26.216Z,42.97
2022-08-22T03:03:32.309Z,42.90
2022-08-22T03:05:48.162Z,43.04
2022-08-22T03:08:00.596Z,43.11
2022-08-22T03:10:14.824Z,43.23
2022-08-22T03:12:25.742Z,43.29
2022-08-22T03:14:33.374Z,43.29
2022-08-22T03:16:41.174Z,43.26
2022-08-22T03:18:54.149Z,43.45
2022-08-22T03:21:12.542Z,43.60
2022-08-22T03:23:34.245Z,43.59
2022-08-22T03:25:44.790Z,43.67
2022-08-22T03:27:54.659Z,43.76
2022-08-22T03:30:03.113Z,43.77
2022-08-22T03:32:13.037Z,43.88
2022-08-22T03:34:20.192Z,43.99
2022-08-22T03:36:31.322Z,44.04
2022-08-22T03:38:52.333Z,44.18
2022-08-22T03:41:25.163Z,44.51
2022-08-22T03:43:56.973Z,44.92
2022-08-22T03:46:39.141Z,45.04
2022-08-22T03:49:05.671Z,45.20
2022-08-22T03:51:23.292Z,45.53
2022-08-22T03:53:41.023Z,46.15
2022-08-22T03:56:25.459Z,46.52
2022-08-22T03:58:58.569Z,46.98
2022-08-22T04:01:34.964Z,47.09
2022-08-22T04:04:10.470Z,47.34
2022-08-22T04:06:48.407Z,47.32
2022-08-22T04:09:25.825Z,47.76
2022-08-22T04:11:51.655Z,47.76
2022-08-22T04:14:10.414Z,47.53
2022-08-22T04:17:14.829Z,47.62
2022-08-22T04:19:59.919Z,47.77
2022-08-22T04:22:30.220Z,48.27
2022-08-22T04:24:59.595Z,48.58
2022-08-22T04:27:30.160Z,48.21
2022-08-22T04:29:59.269Z,48.46
2022-08-22T04:32:27.300Z,48.36
2022-08-22T04:34:53.234Z,48.69
2022-08-22T04:37:19.716Z,49.00
2022-08-22T04:39:49.216Z,49.29
2022-08-22T04:42:32.156Z,49.85
2022-08-22T04:45:01.949Z,49.93
2022-08-22T04:47:32.075Z,50.11
2022-08-22T04:50:00.952Z,50.02
2022-08-22T04:52:32.840Z,50.27
2022-08-22T04:55:04.197Z,50.07
2022-08-22T04:57:32.183Z,50.19
2022-08-22T05:00:00.363Z,50.33
2022-08-22T05:02:27.495Z,50.40
2022-08-22T05:04:52.953Z,50.67
2022-08-22T05:07:17.515Z,50.44
2022-08-22T05:09:43.896Z,50.48
2022-08-22T05:12:11.980Z,50.33
2022-08-22T05:14:40.842Z,50.23
2022-08-22T05:17:05.875Z,50.34
2022-08-22T05:19:33.158Z,50.33
2022-08-22T05:21:55.433Z,50.33
2022-08-22T05:24:23.504Z,50.55
2022-08-22T05:26:53.765Z,50.92
2022-08-22T05:29:20.178Z,50.86
2022-08-22T05:31:50.069Z,51.01
2022-08-22T05:34:16.248Z,51.29
2022-08-22T05:36:24.485Z,51.38
2022-08-22T05:38:31.502Z,51.24
2022-08-22T05:40:37.795Z,51.24
2022-08-22T05:42:41.174Z,51.24
2022-08-22T05:44:44.099Z,51.28
2022-08-22T05:46:52.930Z,51.24
2022-08-22T05:49:00.590Z,51.09
2022-08-22T05:51:16.074Z,51.34
2022-08-22T05:53:30.891Z,51.46
2022-08-22T05:55:41.586Z,51.58
2022-08-22T05:57:51.182Z,51.56
2022-08-22T06:00:02.077Z,51.59
2022-08-22T06:02:19.868Z,51.74
2022-08-22T06:04:31.597Z,51.36
2022-08-22T06:06:43.486Z,51.18
2022-08-22T06:10:55.475Z,50.14
2022-08-22T06:13:04.527Z,49.85
2022-08-22T06:15:21.004Z,49.68
2022-08-22T06:17:28.213Z,49.28
2022-08-22T06:19:33.869Z,49.12
2022-08-22T06:21:41.841Z,49.06
2022-08-22T06:23:49.255Z,48.92
2022-08-22T06:25:54.963Z,48.76
2022-08-22T06:28:01.554Z,48.58
2022-08-22T06:30:07.323Z,48.60
2022-08-22T06:32:13.996Z,48.49
2022-08-22T06:34:24.490Z,48.27
2022-08-22T06:36:33.963Z,48.36
2022-08-22T06:38:54.831Z,48.12
2022-08-22T06:41:01.469Z,47.88
2022-08-22T06:43:06.921Z,47.76
2022-08-22T06:45:13.106Z,47.75
2022-08-22T06:47:19.285Z,47.89
2022-08-22T06:49:24.182Z,48.27
2022-08-22T06:51:30.136Z,48.44
2022-08-22T06:53:37.092Z,48.43
2022-08-22T06:55:48.399Z,48.52
2022-08-22T06:57:56.435Z,48.72
2022-08-22T07:00:01.289Z,48.32
2022-08-22T07:02:11.032Z,48.33
2022-08-22T07:04:14.357Z,48.46
2022-08-22T07:06:20.026Z,48.22
2022-08-22T07:08:25.781Z,48.26
2022-08-22T07:10:28.696Z,47.94
2022-08-22T07:12:38.001Z,47.42
2022-08-22T07:14:44.208Z,47.43
2022-08-22T07:16:56.809Z,47.01
2022-08-22T07:19:00.530Z,46.83
2022-08-22T07:21:08.325Z,46.51
2022-08-22T07:23:14.926Z,45.81
2022-08-22T07:25:17.936Z,45.52
2022-08-22T07:27:37.301Z,45.07
2022-08-22T07:29:48.955Z,44.50
2022-08-22T07:31:56.865Z,44.30
2022-08-22T07:34:10.012Z,44.37
2022-08-22T07:36:23.406Z,44.32
2022-08-22T07:38:34.745Z,45.01
2022-08-22T07:40:43.783Z,44.60
2022-08-22T07:42:51.579Z,44.74
2022-08-22T07:45:06.390Z,44.33
2022-08-22T07:47:11.842Z,44.75
2022-08-22T07:49:15.653Z,44.77
2022-08-22T07:51:24.141Z,44.42
2022-08-22T07:53:35.020Z,44.30
2022-08-22T07:55:48.472Z,43.99
2022-08-22T07:57:55.057Z,44.10
2022-08-22T08:00:01.420Z,44.07
2022-08-22T08:02:16.697Z,43.87
2022-08-22T08:04:24.733Z,43.72
2022-08-22T08:06:29.082Z,43.42
2022-08-22T08:08:34.143Z,43.52
2022-08-22T08:10:40.889Z,43.42
2022-08-22T08:12:56.163Z,43.30
2022-08-22T08:15:11.504Z,43.45
2022-08-22T08:17:21.626Z,43.15
2022-08-22T08:19:25.530Z,43.48
2022-08-22T08:21:31.870Z,43.34
2022-08-22T08:23:39.681Z,43.55
2022-08-22T08:25:54.460Z,42.89
2022-08-22T08:28:17.060Z,42.78
2022-08-22T08:30:25.012Z,42.40
2022-08-22T08:32:32.543Z,42.20
2022-08-22T08:34:37.494Z,42.17
2022-08-22T08:36:51.761Z,42.45
2022-08-22T08:39:03.094Z,42.47
2022-08-22T08:41:29.469Z,42.42
2022-08-22T08:43:44.676Z,42.47
2022-08-22T08:46:10.703Z,42.31
2022-08-22T08:48:36.855Z,42.63
2022-08-22T08:50:55.039Z,42.31
2022-08-22T08:53:23.894Z,42.29
2022-08-22T08:55:42.683Z,42.20
2022-08-22T08:57:59.440Z,42.26
2022-08-22T09:00:14.463Z,40.99
2022-08-22T09:02:49.695Z,40.98
2022-08-22T09:05:19.882Z,40.73
2022-08-22T09:07:46.741Z,40.30
2022-08-22T09:10:11.252Z,40.50
2022-08-22T09:12:32.370Z,40.69
2022-08-22T09:15:01.918Z,40.41
2022-08-22T09:17:34.627Z,39.86
2022-08-22T09:20:21.998Z,39.93
2022-08-22T09:23:04.947Z,39.20
2022-08-22T09:25:36.724Z,38.47
2022-08-22T09:27:49.900Z,38.27
2022-08-22T09:29:59.957Z,38.81
2022-08-22T09:32:13.045Z,38.66
2022-08-22T09:34:23.831Z,39.17
2022-08-22T09:36:33.388Z,38.73
2022-08-22T09:38:50.083Z,39.11
2022-08-22T09:41:02.880Z,38.35
2022-08-22T09:43:11.045Z,36.87
2022-08-22T09:45:38.108Z,37.00
2022-08-22T09:47:51.344Z,36.75
2022-08-22T09:50:05.814Z,37.22
2022-08-22T09:52:33.263Z,37.05
2022-08-22T09:54:45.033Z,36.79
2022-08-22T09:57:15.256Z,36.61
2022-08-22T09:59:23.984Z,36.38
2022-08-22T10:01:32.980Z,36.07
2022-08-22T10:04:21.336Z,35.38
2022-08-22T10:06:28.717Z,34.70
2022-08-22T10:08:48.486Z,34.57
2022-08-22T10:11:24.426Z,35.58
2022-08-22T10:13:38.301Z,35.44
2022-08-22T10:15:45.285Z,34.54
2022-08-22T10:18:02.749Z,34.80
2022-08-22T10:20:18.996Z,35.04
2022-08-22T10:22:35.177Z,35.48
2022-08-22T10:24:47.053Z,35.07
2022-08-22T10:26:55.338Z,34.72
2022-08-22T10:29:08.271Z,34.90
2022-08-22T10:31:29.198Z,33.48
2022-08-22T10:33:39.821Z,33.10
2022-08-22T10:35:55.989Z,33.15
2022-08-22T10:38:04.769Z,33.93
2022-08-22T10:40:14.184Z,34.17
2022-08-22T10:42:27.978Z,33.59
2022-08-22T10:44:41.837Z,32.94
2022-08-22T10:46:52.432Z,33.18
2022-08-22T10:48:59.705Z,32.93
2022-08-22T10:51:23.057Z,33.13
2022-08-22T10:53:34.717Z,32.91
2022-08-22T10:55:41.554Z,32.68
2022-08-22T10:58:09.743Z,31.82
2022-08-22T11:00:32.029Z,32.48
2022-08-22T11:02:42.231Z,31.86
2022-08-22T11:05:14.790Z,31.49
2022-08-22T11:07:40.735Z,30.29
2022-08-22T11:09:56.067Z,30.42
2022-08-22T11:12:04.479Z,31.25
2022-08-22T11:14:28.569Z,30.80
2022-08-22T11:16:55.149Z,30.02
2022-08-22T11:19:15.160Z,29.96
2022-08-22T11:21:27.023Z,30.00
2022-08-22T11:23:41.933Z,29.85
2022-08-22T11:25:53.861Z,29.54
2022-08-22T11:28:29.883Z,30.46
2022-08-22T11:30:45.714Z,29.60
2022-08-22T11:33:14.503Z,29.34
2022-08-22T11:35:23.975Z,30.01
2022-08-22T11:37:51.352Z,29.29
2022-08-22T11:40:15.514Z,28.16
2022-08-22T11:42:25.474Z,28.17
2022-08-22T11:44:50.053Z,28.31
2022-08-22T11:46:57.167Z,29.18
2022-08-22T11:49:26.788Z,29.09
2022-08-22T11:51:51.754Z,28.40
2022-08-22T11:54:04.153Z,28.42
2022-08-22T11:56:20.340Z,28.58
2022-08-22T11:58:30.933Z,28.48
2022-08-22T12:00:39.907Z,27.56
2022-08-22T12:02:58.935Z,27.61
2022-08-22T12:05:20.034Z,28.50
2022-08-22T12:07:31.170Z,29.02
2022-08-22T12:09:44.050Z,28.31
2022-08-22T12:12:00.046Z,27.95
2022-08-22T12:14:07.227Z,28.24
2022-08-22T12:16:17.566Z,28.29
2022-08-22T12:18:55.328Z,27.75
2022-08-22T12:21:18.935Z,28.22
2022-08-22T12:23:49.240Z,28.41
2022-08-22T12:26:10.659Z,27.30
2022-08-22T12:28:28.923Z,27.29
2022-08-22T12:30:37.994Z,27.07
2022-08-22T12:33:09.690Z,27.61
2022-08-22T12:35:33.364Z,27.70
2022-08-22T12:37:52.805Z,27.04
2022-08-22T12:40:26.422Z,28.14
2022-08-22T12:42:46.143Z,28.38
2022-08-22T12:45:09.661Z,28.27
2022-08-22T12:47:34.411Z,27.74
2022-08-22T12:49:52.636Z,27.70
2022-08-22T12:52:09.416Z,26.34
2022-08-22T12:54:33.656Z,25.81
2022-08-22T12:56:47.935Z,26.30
2022-08-22T12:59:19.085Z,26.43
2022-08-22T13:01:23.344Z,26.14
2022-08-22T13:03:44.086Z,26.57
2022-08-22T13:05:56.703Z,26.02
2022-08-22T13:08:07.674Z,26.15
2022-08-22T13:10:36.486Z,25.04
2022-08-22T13:12:46.391Z,25.36
2022-08-22T13:14:54.379Z,25.70
2022-08-22T13:17:01.656Z,25.74
2022-08-22T13:19:28.529Z,24.80
2022-08-22T13:21:36.082Z,24.80
2022-08-22T13:23:44.723Z,25.34
2022-08-22T13:26:10.319Z,25.31
2022-08-22T13:28:14.831Z,25.56
2022-08-22T13:30:21.739Z,25.33
2022-08-22T13:32:32.577Z,25.31
2022-08-22T13:34:43.663Z,25.85
2022-08-22T13:36:52.098Z,25.73
2022-08-22T13:39:02.576Z,25.59
2022-08-22T13:41:09.246Z,24.98
2022-08-22T13:43:18.908Z,24.31
2022-08-22T13:45:25.101Z,24.95
2022-08-22T13:47:31.765Z,24.18
2022-08-22T13:49:36.988Z,24.28
2022-08-22T13:51:48.203Z,24.68
2022-08-22T13:54:00.751Z,24.25
2022-08-22T13:56:15.868Z,23.79
2022-08-22T13:58:27.104Z,23.77
2022-08-22T14:00:59.695Z,24.18
2022-08-22T14:03:08.075Z,23.71
2022-08-22T14:05:26.270Z,23.93
2022-08-22T14:07:34.841Z,24.18
2022-08-22T14:09:51.318Z,23.67
2022-08-22T14:12:08.159Z,23.24
2022-08-22T14:14:24.076Z,23.58
2022-08-22T14:16:33.876Z,23.68
2022-08-22T14:18:45.703Z,23.08
2022-08-22T14:20:50.088Z,23.09
2022-08-22T14:23:03.480Z,23.21
2022-08-22T14:25:10.447Z,23.34
2022-08-22T14:27:17.178Z,23.71
2022-08-22T14:29:26.054Z,24.11
2022-08-22T14:31:29.914Z,24.12
2022-08-22T14:33:40.117Z,24.34
2022-08-22T14:35:52.681Z,23.85
2022-08-22T14:38:17.819Z,23.40
2022-08-22T14:40:23.999Z,23.62
2022-08-22T14:42:32.253Z,23.76
2022-08-22T14:44:44.669Z,22.94
2022-08-22T14:46:52.363Z,23.98
2022-08-22T14:49:25.264Z,23.94
2022-08-22T14:51:29.080Z,24.29
2022-08-22T14:53:35.638Z,23.95
2022-08-22T14:55:40.106Z,24.39
2022-08-22T14:57:49.912Z,24.08
2022-08-22T14:59:53.908Z,24.17
2022-08-22T15:02:01.067Z,23.75
2022-08-22T15:04:08.217Z,24.28
2022-08-22T15:06:13.228Z,23.84
2022-08-22T15:08:27.405Z,24.45
2022-08-22T15:10:34.120Z,23.79
2022-08-22T15:12:46.508Z,24.27
2022-08-22T15:14:54.615Z,24.96
2022-08-22T15:17:01.482Z,23.75
2022-08-22T15:19:22.808Z,23.76
2022-08-22T15:21:29.555Z,24.59
2022-08-22T15:23:33.991Z,23.70
2022-08-22T15:25:59.754Z,24.27
2022-08-22T15:28:14.355Z,24.80
2022-08-22T15:30:33.640Z,24.41
2022-08-22T15:32:41.822Z,23.45
2022-08-22T15:34:47.670Z,23.94
2022-08-22T15:37:29.522Z,23.75
2022-08-22T15:39:39.125Z,23.60
2022-08-22T15:41:46.946Z,23.79
2022-08-22T15:43:51.844Z,23.69
2022-08-22T15:46:19.393Z,24.20
2022-08-22T15:48:30.923Z,24.42
2022-08-22T15:50:39.820Z,23.48
2022-08-22T15:53:11.311Z,23.49
2022-08-22T15:55:25.259Z,23.36
2022-08-22T15:57:31.500Z,23.28
2022-08-22T15:59:54.183Z,23.87
2022-08-22T16:02:04.874Z,23.77
2022-08-22T16:04:13.694Z,23.38
2022-08-22T16:06:46.652Z,23.68
2022-08-22T16:08:53.000Z,23.14
2022-08-22T16:11:14.803Z,23.12
2022-08-22T16:13:39.760Z,23.33
2022-08-22T16:16:00.527Z,23.08
2022-08-22T16:18:03.598Z,22.70
2022-08-22T16:20:44.112Z,23.72
2022-08-22T16:23:09.484Z,22.95
2022-08-22T16:25:12.402Z,23.40
2022-08-22T16:27:20.130Z,23.20
2022-08-22T16:29:35.519Z,22.58
2022-08-22T16:32:03.423Z,22.52
2022-08-22T16:34:25.094Z,23.09
2022-08-22T16:36:43.589Z,23.50
2022-08-22T16:38:51.797Z,23.74
2022-08-22T16:40:54.770Z,24.05
2022-08-22T16:43:14.140Z,23.94
2022-08-22T16:45:20.062Z,23.61
2022-08-22T16:47:40.584Z,23.66
2022-08-22T16:50:05.134Z,23.85
2022-08-22T16:52:39.647Z,24.20
2022-08-22T16:54:46.189Z,24.19
2022-08-22T16:57:04.049Z,24.13
2022-08-22T16:59:24.602Z,25.18
2022-08-22T17:01:59.355Z,24.65
2022-08-22T17:04:12.026Z,24.70
2022-08-22T17:06:42.303Z,24.58
2022-08-22T17:08:58.248Z,24.71
2022-08-22T17:11:15.244Z,24.96
2022-08-22T17:13:34.875Z,25.09
2022-08-22T17:15:53.173Z,25.45
2022-08-22T17:18:13.702Z,25.65
2022-08-22T17:20:29.445Z,26.04
2022-08-22T17:22:43.799Z,25.25
2022-08-22T17:24:51.889Z,25.38
2022-08-22T17:27:03.396Z,24.71
2022-08-22T17:29:23.436Z,24.94
2022-08-22T17:31:32.648Z,25.35
2022-08-22T17:34:01.491Z,27.16
2022-08-22T17:36:21.729Z,26.57
2022-08-22T17:38:48.479Z,25.93
2022-08-22T17:41:00.866Z,25.99
2022-08-22T17:43:15.649Z,25.92
2022-08-22T17:45:28.087Z,26.58
2022-08-22T17:47:40.142Z,26.53
2022-08-22T17:49:52.414Z,26.77
2022-08-22T17:52:01.116Z,26.66
2022-08-22T17:54:16.098Z,26.91
2022-08-22T17:56:23.658Z,25.77
2022-08-22T17:58:37.800Z,26.24
2022-08-22T18:00:51.992Z,26.41
2022-08-22T18:03:00.106Z,26.83
2022-08-22T18:05:09.400Z,26.86
2022-08-22T18:07:53.043Z,27.63
2022-08-22T18:09:59.847Z,27.57
2022-08-22T18:12:08.960Z,27.71
2022-08-22T18:14:25.716Z,27.79
2022-08-22T18:16:32.297Z,27.63
2022-08-22T18:18:39.903Z,27.97
2022-08-22T18:20:50.727Z,28.02
2022-08-22T18:22:57.774Z,28.05
2022-08-22T18:25:04.445Z,28.47
2022-08-22T18:27:34.662Z,28.87
2022-08-22T18:29:46.057Z,29.40
2022-08-22T18:31:54.611Z,29.38
2022-08-22T18:34:04.025Z,29.14
2022-08-22T18:36:14.591Z,29.51
2022-08-22T18:38:24.306Z,29.87
2022-08-22T18:40:46.835Z,29.94
2022-08-22T18:42:59.675Z,30.19
2022-08-22T18:45:04.616Z,30.05
2022-08-22T18:47:17.346Z,30.70
2022-08-22T18:49:43.864Z,31.16
2022-08-22T18:52:15.793Z,31.32
2022-08-22T18:54:32.163Z,31.70
2022-08-22T18:56:50.094Z,31.42
2022-08-22T18:59:06.195Z,31.29
2022-08-22T19:01:45.038Z,31.86
2022-08-22T19:04:08.342Z,31.97
2022-08-22T19:06:32.886Z,32.20
2022-08-22T19:09:11.778Z,32.61
2022-08-22T19:11:35.123Z,31.93
2022-08-22T19:13:57.683Z,33.14
2022-08-22T19:16:14.049Z,32.79
2022-08-22T19:18:34.418Z,32.84
2022-08-22T19:20:57.669Z,32.79
2022-08-22T19:23:36.896Z,32.52
2022-08-22T19:26:18.090Z,31.12
2022-08-22T19:28:36.044Z,32.24
2022-08-22T19:30:43.780Z,32.57
2022-08-22T19:32:59.902Z,32.63
2022-08-22T19:35:20.081Z,32.93
2022-08-22T19:37:32.972Z,33.10
2022-08-22T19:39:54.687Z,33.25
2022-08-22T19:41:59.432Z,32.94
2022-08-22T19:44:03.846Z,33.47
2022-08-22T19:46:10.064Z,33.61
2022-08-22T19:48:14.532Z,33.69
2022-08-22T19:50:30.181Z,34.14
2022-08-22T19:52:55.251Z,33.98
2022-08-22T19:55:04.712Z,34.38
2022-08-22T19:57:17.223Z,34.51
2022-08-22T19:59:31.554Z,33.98
2022-08-22T20:01:43.834Z,34.11
2022-08-22T20:03:53.666Z,33.40
2022-08-22T20:06:05.466Z,33.93
2022-08-22T20:08:40.850Z,33.83
2022-08-22T20:10:58.646Z,33.76
2022-08-22T20:13:07.596Z,33.35
2022-08-22T20:15:20.247Z,33.34
2022-08-22T20:17:42.242Z,33.09
2022-08-22T20:22:18.593Z,32.62
2022-08-22T20:24:27.993Z,32.99
2022-08-22T20:26:31.495Z,32.11
2022-08-22T20:28:41.060Z,32.45
2022-08-22T20:30:51.584Z,32.12
2022-08-22T20:32:59.533Z,32.46
2022-08-22T20:35:05.556Z,32.83
2022-08-22T20:37:29.637Z,32.74
2022-08-22T20:39:40.243Z,32.09
2022-08-22T20:41:46.935Z,32.04
2022-08-22T20:43:52.907Z,32.35
2022-08-22T20:46:07.120Z,31.90
2022-08-22T20:48:11.488Z,31.56
2022-08-22T20:50:14.412Z,31.74
2022-08-22T20:52:26.829Z,31.54
2022-08-22T20:54:31.692Z,32.16
2022-08-22T20:56:48.667Z,32.08
2022-08-22T20:59:00.934Z,31.70
2022-08-22T21:01:07.664Z,32.15
2022-08-22T21:03:22.934Z,32.39
2022-08-22T21:05:32.698Z,32.44
2022-08-22T21:07:38.483Z,32.68
2022-08-22T21:09:58.803Z,32.20
2022-08-22T21:12:02.272Z,33.16
2022-08-22T21:14:19.364Z,33.06
2022-08-22T21:16:31.674Z,33.10
2022-08-22T21:18:36.691Z,33.05
2022-08-22T21:20:39.983Z,33.66
2022-08-22T21:22:43.244Z,33.99
2022-08-22T21:24:47.185Z,34.48
2022-08-22T21:26:55.014Z,34.75
2022-08-22T21:29:01.758Z,34.73
2022-08-22T21:31:13.011Z,34.87
2022-08-22T21:33:23.621Z,35.09
2022-08-22T21:35:31.103Z,35.00
2022-08-22T21:37:39.703Z,34.44
2022-08-22T21:39:46.101Z,34.48
2022-08-22T21:41:51.588Z,34.97
2022-08-22T21:43:54.698Z,34.60
2022-08-22T21:45:57.745Z,33.89
2022-08-22T21:48:02.032Z,33.91
2022-08-22T21:50:15.458Z,34.29
2022-08-22T21:52:27.092Z,34.15
2022-08-22T21:54:41.004Z,33.60
2022-08-22T21:56:43.922Z,33.63
2022-08-22T21:58:46.965Z,33.75
2022-08-22T22:00:52.010Z,33.96
2022-08-22T22:03:00.930Z,33.68
2022-08-22T22:05:11.328Z,33.50
2022-08-22T22:07:14.591Z,33.79
2022-08-22T22:09:18.428Z,33.47
2022-08-22T22:11:21.384Z,33.53
2022-08-22T22:13:27.135Z,33.03
2022-08-22T22:15:34.974Z,33.33
2022-08-22T22:17:37.827Z,33.40
2022-08-22T22:19:40.687Z,33.34
2022-08-22T22:21:45.300Z,33.55
2022-08-22T22:23:49.277Z,33.73
2022-08-22T22:25:53.428Z,33.58
2022-08-22T22:27:56.402Z,33.47
2022-08-22T22:30:01.193Z,33.44
2022-08-22T22:32:04.827Z,33.36
2022-08-22T22:34:07.686Z,33.47
2022-08-22T22:36:15.308Z,33.17
2022-08-22T22:38:23.714Z,33.72
2022-08-22T22:40:27.139Z,33.62
2022-08-22T22:42:30.047Z,33.87
2022-08-22T22:44:32.898Z,34.04
2022-08-22T22:46:35.738Z,34.20
2022-08-22T22:48:38.569Z,34.10
2022-08-22T22:50:43.982Z,33.92
2022-08-22T22:52:46.873Z,34.19
2022-08-22T22:54:51.146Z,34.38
2022-08-22T22:56:54.060Z,34.42
2022-08-22T22:59:00.753Z,34.32
2022-08-22T23:01:19.334Z,34.46
2022-08-22T23:03:22.702Z,34.45
2022-08-22T23:05:25.522Z,34.57
2022-08-22T23:07:28.757Z,34.78
2022-08-22T23:09:38.341Z,34.51
2022-08-22T23:11:48.648Z,34.67
2022-08-22T23:13:51.825Z,34.87
2022-08-22T23:15:54.665Z,34.85
2022-08-22T23:17:57.551Z,34.77
2022-08-22T23:20:01.169Z,34.67
2022-08-22T23:22:04.034Z,34.81
2022-08-22T23:24:08.881Z,34.88
2022-08-22T23:26:12.754Z,35.21
2022-08-22T23:28:16.891Z,35.14
2022-08-22T23:30:19.808Z,35.26
2022-08-22T23:32:22.669Z,35.29
2022-08-22T23:34:29.839Z,35.24
2022-08-22T23:36:32.846Z,34.86
2022-08-22T23:38:35.692Z,35.24
2022-08-22T23:40:38.516Z,35.38
2022-08-22T23:42:41.308Z,35.45
2022-08-22T23:44:46.264Z,35.83
2022-08-22T23:46:49.261Z,35.63
2022-08-22T23:48:52.284Z,35.69
2022-08-22T23:50:55.096Z,35.63
2022-08-22T23:52:57.910Z,35.71
2022-08-22T23:55:00.730Z,35.58
2022-08-22T23:57:11.860Z,35.96
2022-08-22T23:59:18.131Z,35.94
